sensor_id;sensor_type;location;lat;lon;timestamp;P1;durP1;ratioP1;P2;durP2;ratioP2
35847;SDS011;22332;51.954;20.118;2022-08-01T00:01:46;3.60;;;3.00;;
35847;SDS011;22332;51.954;20.118;2022-08-01T00:04:51;4.80;;;3.30;;
35847;SDS011;22332;51.954;20.118;2022-08-01T00:07:58;3.40;;;2.50;;
35847;SDS011;22332;51.954;20.118;2022-08-01T00:11:04;4.70;;;3.00;;
35847;SDS011;22332;51.954;20.118;2022-08-01T00:14:11;4.40;;;2.90;;
35847;SDS011;22332;51.954;20.118;2022-08-01T00:17:16;4.30;;;3.00;;
35847;SDS011;22332;51.954;20.118;2022-08-01T00:20:21;5.60;;;3.40;;
35847;SDS011;22332;51.954;20.118;2022-08-01T00:23:27;6.20;;;2.70;;
35847;SDS011;22332;51.954;20.118;2022-08-01T00:26:33;3.30;;;2.50;;
35847;SDS011;22332;51.954;20.118;2022-08-01T00:29:38;4.80;;;2.60;;
35847;SDS011;22332;51.954;20.118;2022-08-01T00:32:43;5.60;;;3.10;;
35847;SDS011;22332;51.954;20.118;2022-08-01T00:35:49;5.30;;;3.30;;
35847;SDS011;22332;51.954;20.118;2022-08-01T00:38:54;3.20;;;2.40;;
35847;SDS011;22332;51.954;20.118;2022-08-01T00:42:01;3.10;;;2.70;;
35847;SDS011;22332;51.954;20.118;2022-08-01T00:45:11;4.70;;;3.30;;
35847;SDS011;22332;51.954;20.118;2022-08-01T00:48:17;5.80;;;3.80;;
35847;SDS011;22332;51.954;20.118;2022-08-01T00:51:23;7.20;;;3.60;;
35847;SDS011;22332;51.954;20.118;2022-08-01T00:54:30;3.50;;;2.90;;
35847;SDS011;22332;51.954;20.118;2022-08-01T00:57:36;6.10;;;3.30;;
35847;SDS011;22332;51.954;20.118;2022-08-01T01:00:42;4.00;;;3.70;;
35847;SDS011;22332;51.954;20.118;2022-08-01T01:03:48;5.80;;;3.90;;
35847;SDS011;22332;51.954;20.118;2022-08-01T01:06:55;4.50;;;3.50;;
35847;SDS011;22332;51.954;20.118;2022-08-01T01:10:09;4.90;;;3.60;;
35847;SDS011;22332;51.954;20.118;2022-08-01T01:13:23;4.90;;;3.80;;
35847;SDS011;22332;51.954;20.118;2022-08-01T01:16:36;5.70;;;4.30;;
35847;SDS011;22332;51.954;20.118;2022-08-01T01:19:47;6.70;;;4.20;;
35847;SDS011;22332;51.954;20.118;2022-08-01T01:22:59;4.60;;;3.80;;
35847;SDS011;22332;51.954;20.118;2022-08-01T01:26:28;4.80;;;3.40;;
35847;SDS011;22332;51.954;20.118;2022-08-01T01:29:43;4.30;;;3.60;;
35847;SDS011;22332;51.954;20.118;2022-08-01T01:32:51;6.30;;;4.00;;
35847;SDS011;22332;51.954;20.118;2022-08-01T01:36:03;7.10;;;4.10;;
35847;SDS011;22332;51.954;20.118;2022-08-01T01:39:12;4.50;;;3.30;;
35847;SDS011;22332;51.954;20.118;2022-08-01T01:42:19;4.40;;;3.10;;
35847;SDS011;22332;51.954;20.118;2022-08-01T01:45:28;6.00;;;3.70;;
35847;SDS011;22332;51.954;20.118;2022-08-01T01:48:34;5.00;;;3.40;;
35847;SDS011;22332;51.954;20.118;2022-08-01T01:51:42;4.40;;;3.30;;
35847;SDS011;22332;51.954;20.118;2022-08-01T01:54:50;4.40;;;2.90;;
35847;SDS011;22332;51.954;20.118;2022-08-01T01:57:57;5.50;;;3.10;;
35847;SDS011;22332;51.954;20.118;2022-08-01T02:01:04;6.40;;;3.30;;
35847;SDS011;22332;51.954;20.118;2022-08-01T02:04:13;6.10;;;3.30;;
35847;SDS011;22332;51.954;20.118;2022-08-01T02:07:20;8.00;;;3.70;;
35847;SDS011;22332;51.954;20.118;2022-08-01T02:10:28;5.00;;;3.30;;
35847;SDS011;22332;51.954;20.118;2022-08-01T02:13:36;3.60;;;2.90;;
35847;SDS011;22332;51.954;20.118;2022-08-01T02:16:44;3.90;;;2.70;;
35847;SDS011;22332;51.954;20.118;2022-08-01T02:19:53;4.70;;;3.20;;
35847;SDS011;22332;51.954;20.118;2022-08-01T02:23:00;3.70;;;3.10;;
35847;SDS011;22332;51.954;20.118;2022-08-01T02:26:13;4.70;;;2.90;;
35847;SDS011;22332;51.954;20.118;2022-08-01T02:29:22;5.20;;;2.90;;
35847;SDS011;22332;51.954;20.118;2022-08-01T02:32:31;5.00;;;3.00;;
35847;SDS011;22332;51.954;20.118;2022-08-01T02:35:41;3.80;;;2.70;;
35847;SDS011;22332;51.954;20.118;2022-08-01T02:38:49;4.10;;;3.10;;
35847;SDS011;22332;51.954;20.118;2022-08-01T02:41:59;4.50;;;2.70;;
35847;SDS011;22332;51.954;20.118;2022-08-01T02:45:09;6.20;;;2.90;;
35847;SDS011;22332;51.954;20.118;2022-08-01T02:48:16;5.40;;;2.70;;
35847;SDS011;22332;51.954;20.118;2022-08-01T02:51:23;4.50;;;2.70;;
35847;SDS011;22332;51.954;20.118;2022-08-01T02:54:30;4.00;;;3.10;;
35847;SDS011;22332;51.954;20.118;2022-08-01T02:57:36;4.80;;;3.10;;
35847;SDS011;22332;51.954;20.118;2022-08-01T03:00:43;5.30;;;3.20;;
35847;SDS011;22332;51.954;20.118;2022-08-01T03:03:50;3.20;;;2.90;;
35847;SDS011;22332;51.954;20.118;2022-08-01T03:06:56;4.00;;;3.50;;
35847;SDS011;22332;51.954;20.118;2022-08-01T03:10:04;5.70;;;3.70;;
35847;SDS011;22332;51.954;20.118;2022-08-01T03:13:12;5.40;;;3.00;;
35847;SDS011;22332;51.954;20.118;2022-08-01T03:16:19;4.30;;;3.10;;
35847;SDS011;22332;51.954;20.118;2022-08-01T03:19:27;4.70;;;3.30;;
35847;SDS011;22332;51.954;20.118;2022-08-01T03:22:35;5.00;;;3.30;;
35847;SDS011;22332;51.954;20.118;2022-08-01T03:25:43;6.00;;;3.70;;
35847;SDS011;22332;51.954;20.118;2022-08-01T03:28:51;4.70;;;3.20;;
35847;SDS011;22332;51.954;20.118;2022-08-01T03:32:02;4.40;;;3.00;;
35847;SDS011;22332;51.954;20.118;2022-08-01T03:35:09;3.20;;;2.90;;
35847;SDS011;22332;51.954;20.118;2022-08-01T03:38:16;4.70;;;3.10;;
35847;SDS011;22332;51.954;20.118;2022-08-01T03:41:25;4.80;;;3.80;;
35847;SDS011;22332;51.954;20.118;2022-08-01T03:44:34;6.10;;;3.90;;
35847;SDS011;22332;51.954;20.118;2022-08-01T03:47:42;5.90;;;3.10;;
35847;SDS011;22332;51.954;20.118;2022-08-01T03:50:51;4.30;;;3.10;;
35847;SDS011;22332;51.954;20.118;2022-08-01T03:53:57;4.70;;;3.50;;
35847;SDS011;22332;51.954;20.118;2022-08-01T03:57:05;4.90;;;4.00;;
35847;SDS011;22332;51.954;20.118;2022-08-01T04:00:13;9.60;;;5.40;;
35847;SDS011;22332;51.954;20.118;2022-08-01T04:03:20;5.40;;;4.00;;
35847;SDS011;22332;51.954;20.118;2022-08-01T04:06:27;5.80;;;4.20;;
35847;SDS011;22332;51.954;20.118;2022-08-01T04:09:33;6.40;;;3.90;;
35847;SDS011;22332;51.954;20.118;2022-08-01T04:12:38;6.10;;;4.00;;
35847;SDS011;22332;51.954;20.118;2022-08-01T04:15:43;4.30;;;3.90;;
35847;SDS011;22332;51.954;20.118;2022-08-01T04:18:49;4.10;;;3.70;;
35847;SDS011;22332;51.954;20.118;2022-08-01T04:21:55;4.20;;;3.60;;
35847;SDS011;22332;51.954;20.118;2022-08-01T04:25:01;4.20;;;3.60;;
35847;SDS011;22332;51.954;20.118;2022-08-01T04:28:11;4.80;;;3.60;;
35847;SDS011;22332;51.954;20.118;2022-08-01T04:31:19;4.40;;;3.60;;
35847;SDS011;22332;51.954;20.118;2022-08-01T04:34:28;5.00;;;3.80;;
35847;SDS011;22332;51.954;20.118;2022-08-01T04:37:37;5.20;;;3.80;;
35847;SDS011;22332;51.954;20.118;2022-08-01T04:40:44;4.90;;;4.30;;
35847;SDS011;22332;51.954;20.118;2022-08-01T04:43:50;6.50;;;4.10;;
35847;SDS011;22332;51.954;20.118;2022-08-01T04:46:57;3.50;;;3.20;;
35847;SDS011;22332;51.954;20.118;2022-08-01T04:50:05;4.40;;;3.80;;
35847;SDS011;22332;51.954;20.118;2022-08-01T04:53:13;4.40;;;4.00;;
35847;SDS011;22332;51.954;20.118;2022-08-01T04:56:20;5.20;;;4.70;;
35847;SDS011;22332;51.954;20.118;2022-08-01T04:59:25;5.10;;;3.70;;
35847;SDS011;22332;51.954;20.118;2022-08-01T05:02:43;4.90;;;3.50;;
35847;SDS011;22332;51.954;20.118;2022-08-01T05:05:49;6.70;;;3.90;;
35847;SDS011;22332;51.954;20.118;2022-08-01T05:08:54;5.70;;;3.80;;
35847;SDS011;22332;51.954;20.118;2022-08-01T05:12:00;4.20;;;3.80;;
35847;SDS011;22332;51.954;20.118;2022-08-01T05:15:07;3.30;;;2.60;;
35847;SDS011;22332;51.954;20.118;2022-08-01T05:18:13;2.50;;;1.80;;
35847;SDS011;22332;51.954;20.118;2022-08-01T05:21:18;3.80;;;3.40;;
35847;SDS011;22332;51.954;20.118;2022-08-01T05:24:24;6.80;;;2.80;;
35847;SDS011;22332;51.954;20.118;2022-08-01T05:27:30;3.90;;;3.20;;
35847;SDS011;22332;51.954;20.118;2022-08-01T05:30:40;6.60;;;3.60;;
35847;SDS011;22332;51.954;20.118;2022-08-01T05:33:46;4.20;;;3.70;;
35847;SDS011;22332;51.954;20.118;2022-08-01T05:36:51;4.30;;;3.60;;
35847;SDS011;22332;51.954;20.118;2022-08-01T05:39:57;4.50;;;3.20;;
35847;SDS011;22332;51.954;20.118;2022-08-01T05:43:02;5.30;;;3.90;;
35847;SDS011;22332;51.954;20.118;2022-08-01T05:46:08;3.70;;;3.30;;
35847;SDS011;22332;51.954;20.118;2022-08-01T05:49:13;5.80;;;3.90;;
35847;SDS011;22332;51.954;20.118;2022-08-01T05:52:19;5.50;;;4.20;;
35847;SDS011;22332;51.954;20.118;2022-08-01T05:55:24;5.70;;;4.40;;
35847;SDS011;22332;51.954;20.118;2022-08-01T05:58:29;5.60;;;4.40;;
35847;SDS011;22332;51.954;20.118;2022-08-01T06:01:35;5.40;;;4.00;;
35847;SDS011;22332;51.954;20.118;2022-08-01T06:04:40;4.80;;;3.90;;
35847;SDS011;22332;51.954;20.118;2022-08-01T06:07:46;5.20;;;3.60;;
35847;SDS011;22332;51.954;20.118;2022-08-01T06:10:51;4.80;;;3.60;;
35847;SDS011;22332;51.954;20.118;2022-08-01T06:13:56;5.70;;;3.70;;
35847;SDS011;22332;51.954;20.118;2022-08-01T06:17:02;4.70;;;3.80;;
35847;SDS011;22332;51.954;20.118;2022-08-01T06:20:08;3.90;;;3.40;;
35847;SDS011;22332;51.954;20.118;2022-08-01T06:23:14;4.20;;;3.10;;
35847;SDS011;22332;51.954;20.118;2022-08-01T06:26:20;4.20;;;3.50;;
35847;SDS011;22332;51.954;20.118;2022-08-01T06:29:25;4.10;;;3.40;;
35847;SDS011;22332;51.954;20.118;2022-08-01T06:32:33;3.20;;;2.40;;
35847;SDS011;22332;51.954;20.118;2022-08-01T06:35:38;5.80;;;2.90;;
35847;SDS011;22332;51.954;20.118;2022-08-01T06:38:44;3.20;;;2.90;;
35847;SDS011;22332;51.954;20.118;2022-08-01T06:41:49;4.50;;;2.70;;
35847;SDS011;22332;51.954;20.118;2022-08-01T06:44:54;3.30;;;2.80;;
35847;SDS011;22332;51.954;20.118;2022-08-01T06:48:00;4.20;;;2.80;;
35847;SDS011;22332;51.954;20.118;2022-08-01T06:51:05;3.30;;;3.00;;
35847;SDS011;22332;51.954;20.118;2022-08-01T06:54:11;4.70;;;3.30;;
35847;SDS011;22332;51.954;20.118;2022-08-01T06:57:16;3.90;;;3.20;;
35847;SDS011;22332;51.954;20.118;2022-08-01T07:00:23;3.90;;;2.80;;
35847;SDS011;22332;51.954;20.118;2022-08-01T07:03:29;5.90;;;3.00;;
35847;SDS011;22332;51.954;20.118;2022-08-01T07:06:34;3.70;;;2.80;;
35847;SDS011;22332;51.954;20.118;2022-08-01T07:09:40;4.00;;;2.60;;
35847;SDS011;22332;51.954;20.118;2022-08-01T07:12:45;6.90;;;3.60;;
35847;SDS011;22332;51.954;20.118;2022-08-01T07:15:51;8.40;;;3.10;;
35847;SDS011;22332;51.954;20.118;2022-08-01T07:18:57;5.90;;;3.00;;
35847;SDS011;22332;51.954;20.118;2022-08-01T07:22:02;4.30;;;3.20;;
35847;SDS011;22332;51.954;20.118;2022-08-01T07:25:08;3.50;;;2.90;;
35847;SDS011;22332;51.954;20.118;2022-08-01T07:28:13;2.50;;;2.30;;
35847;SDS011;22332;51.954;20.118;2022-08-01T07:31:19;6.20;;;3.50;;
35847;SDS011;22332;51.954;20.118;2022-08-01T07:34:25;5.10;;;3.30;;
35847;SDS011;22332;51.954;20.118;2022-08-01T07:37:31;2.50;;;2.30;;
35847;SDS011;22332;51.954;20.118;2022-08-01T07:40:36;5.90;;;3.00;;
35847;SDS011;22332;51.954;20.118;2022-08-01T07:43:41;3.40;;;3.00;;
35847;SDS011;22332;51.954;20.118;2022-08-01T07:46:47;2.90;;;2.40;;
35847;SDS011;22332;51.954;20.118;2022-08-01T07:49:52;4.20;;;2.90;;
35847;SDS011;22332;51.954;20.118;2022-08-01T07:53:02;3.80;;;3.00;;
35847;SDS011;22332;51.954;20.118;2022-08-01T07:56:07;2.70;;;2.20;;
35847;SDS011;22332;51.954;20.118;2022-08-01T07:59:13;3.10;;;2.20;;
35847;SDS011;22332;51.954;20.118;2022-08-01T08:02:18;3.50;;;3.20;;
35847;SDS011;22332;51.954;20.118;2022-08-01T08:05:23;5.70;;;3.10;;
35847;SDS011;22332;51.954;20.118;2022-08-01T08:08:29;2.80;;;2.60;;
35847;SDS011;22332;51.954;20.118;2022-08-01T08:11:37;3.80;;;2.90;;
35847;SDS011;22332;51.954;20.118;2022-08-01T08:14:42;4.00;;;3.00;;
35847;SDS011;22332;51.954;20.118;2022-08-01T08:17:47;3.30;;;2.30;;
35847;SDS011;22332;51.954;20.118;2022-08-01T08:20:53;4.80;;;2.40;;
35847;SDS011;22332;51.954;20.118;2022-08-01T08:23:58;3.70;;;2.30;;
35847;SDS011;22332;51.954;20.118;2022-08-01T08:27:21;4.40;;;2.60;;
35847;SDS011;22332;51.954;20.118;2022-08-01T08:30:27;3.20;;;2.80;;
35847;SDS011;22332;51.954;20.118;2022-08-01T08:33:32;3.60;;;3.00;;
35847;SDS011;22332;51.954;20.118;2022-08-01T08:36:37;2.90;;;2.40;;
35847;SDS011;22332;51.954;20.118;2022-08-01T08:39:43;2.80;;;2.40;;
35847;SDS011;22332;51.954;20.118;2022-08-01T08:42:48;2.80;;;2.60;;
35847;SDS011;22332;51.954;20.118;2022-08-01T08:45:54;4.50;;;2.60;;
35847;SDS011;22332;51.954;20.118;2022-08-01T08:49:02;2.50;;;2.30;;
35847;SDS011;22332;51.954;20.118;2022-08-01T08:52:09;3.70;;;2.20;;
35847;SDS011;22332;51.954;20.118;2022-08-01T08:55:16;5.00;;;2.70;;
35847;SDS011;22332;51.954;20.118;2022-08-01T08:58:22;2.00;;;1.80;;
35847;SDS011;22332;51.954;20.118;2022-08-01T09:01:31;3.10;;;2.30;;
35847;SDS011;22332;51.954;20.118;2022-08-01T09:04:37;3.10;;;2.00;;
35847;SDS011;22332;51.954;20.118;2022-08-01T09:07:44;2.40;;;2.10;;
35847;SDS011;22332;51.954;20.118;2022-08-01T09:10:49;3.80;;;2.60;;
35847;SDS011;22332;51.954;20.118;2022-08-01T09:14:04;4.00;;;2.50;;
35847;SDS011;22332;51.954;20.118;2022-08-01T09:17:11;2.60;;;1.90;;
35847;SDS011;22332;51.954;20.118;2022-08-01T09:20:23;2.30;;;1.80;;
35847;SDS011;22332;51.954;20.118;2022-08-01T09:23:32;2.00;;;1.80;;
35847;SDS011;22332;51.954;20.118;2022-08-01T09:26:38;3.50;;;2.20;;
35847;SDS011;22332;51.954;20.118;2022-08-01T09:29:43;4.10;;;2.40;;
35847;SDS011;22332;51.954;20.118;2022-08-01T09:32:56;3.20;;;2.20;;
35847;SDS011;22332;51.954;20.118;2022-08-01T09:36:03;3.50;;;2.20;;
35847;SDS011;22332;51.954;20.118;2022-08-01T09:39:12;2.80;;;2.50;;
35847;SDS011;22332;51.954;20.118;2022-08-01T09:42:20;2.50;;;2.30;;
35847;SDS011;22332;51.954;20.118;2022-08-01T09:45:33;4.00;;;2.50;;
35847;SDS011;22332;51.954;20.118;2022-08-01T09:48:39;2.30;;;1.90;;
35847;SDS011;22332;51.954;20.118;2022-08-01T09:52:11;3.30;;;1.70;;
35847;SDS011;22332;51.954;20.118;2022-08-01T09:55:20;2.10;;;1.90;;
35847;SDS011;22332;51.954;20.118;2022-08-01T09:58:26;2.60;;;1.80;;
35847;SDS011;22332;51.954;20.118;2022-08-01T10:01:42;5.60;;;2.00;;
35847;SDS011;22332;51.954;20.118;2022-08-01T10:04:50;1.90;;;1.60;;
35847;SDS011;22332;51.954;20.118;2022-08-01T10:07:58;2.40;;;1.80;;
35847;SDS011;22332;51.954;20.118;2022-08-01T10:11:06;3.00;;;1.80;;
35847;SDS011;22332;51.954;20.118;2022-08-01T10:14:13;2.80;;;1.80;;
35847;SDS011;22332;51.954;20.118;2022-08-01T10:17:24;2.10;;;1.60;;
35847;SDS011;22332;51.954;20.118;2022-08-01T10:20:30;2.40;;;2.20;;
35847;SDS011;22332;51.954;20.118;2022-08-01T10:23:37;2.30;;;1.80;;
35847;SDS011;22332;51.954;20.118;2022-08-01T10:26:43;2.90;;;2.10;;
35847;SDS011;22332;51.954;20.118;2022-08-01T10:29:51;2.90;;;2.30;;
35847;SDS011;22332;51.954;20.118;2022-08-01T10:33:06;4.10;;;2.10;;
35847;SDS011;22332;51.954;20.118;2022-08-01T10:36:11;3.50;;;1.90;;
35847;SDS011;22332;51.954;20.118;2022-08-01T10:39:17;2.60;;;2.10;;
35847;SDS011;22332;51.954;20.118;2022-08-01T10:42:23;5.60;;;2.10;;
35847;SDS011;22332;51.954;20.118;2022-08-01T10:45:30;4.40;;;2.10;;
35847;SDS011;22332;51.954;20.118;2022-08-01T10:48:43;2.40;;;2.00;;
35847;SDS011;22332;51.954;20.118;2022-08-01T10:51:53;2.10;;;1.70;;
35847;SDS011;22332;51.954;20.118;2022-08-01T10:55:06;2.40;;;1.80;;
35847;SDS011;22332;51.954;20.118;2022-08-01T10:58:13;2.20;;;2.00;;
35847;SDS011;22332;51.954;20.118;2022-08-01T11:01:23;2.40;;;2.20;;
35847;SDS011;22332;51.954;20.118;2022-08-01T11:04:34;1.90;;;1.80;;
35847;SDS011;22332;51.954;20.118;2022-08-01T11:11:00;2.10;;;1.80;;
35847;SDS011;22332;51.954;20.118;2022-08-01T11:14:07;3.40;;;1.90;;
35847;SDS011;22332;51.954;20.118;2022-08-01T11:17:34;2.40;;;1.70;;
35847;SDS011;22332;51.954;20.118;2022-08-01T11:20:43;2.30;;;1.90;;
35847;SDS011;22332;51.954;20.118;2022-08-01T11:24:00;2.30;;;1.80;;
35847;SDS011;22332;51.954;20.118;2022-08-01T11:27:16;1.70;;;1.50;;
35847;SDS011;22332;51.954;20.118;2022-08-01T11:30:23;3.00;;;1.90;;
35847;SDS011;22332;51.954;20.118;2022-08-01T11:37:05;2.00;;;1.80;;
35847;SDS011;22332;51.954;20.118;2022-08-01T11:40:28;2.30;;;1.70;;
35847;SDS011;22332;51.954;20.118;2022-08-01T11:43:33;2.00;;;1.70;;
35847;SDS011;22332;51.954;20.118;2022-08-01T11:50:05;2.10;;;1.50;;
35847;SDS011;22332;51.954;20.118;2022-08-01T11:53:32;2.10;;;1.60;;
35847;SDS011;22332;51.954;20.118;2022-08-01T11:56:40;1.60;;;1.50;;
35847;SDS011;22332;51.954;20.118;2022-08-01T11:59:46;2.30;;;1.60;;
35847;SDS011;22332;51.954;20.118;2022-08-01T12:02:57;1.90;;;1.80;;
35847;SDS011;22332;51.954;20.118;2022-08-01T12:06:04;2.00;;;1.80;;
35847;SDS011;22332;51.954;20.118;2022-08-01T12:09:16;3.20;;;1.90;;
35847;SDS011;22332;51.954;20.118;2022-08-01T12:12:26;3.00;;;1.90;;
35847;SDS011;22332;51.954;20.118;2022-08-01T12:15:33;1.90;;;1.60;;
35847;SDS011;22332;51.954;20.118;2022-08-01T12:18:40;2.30;;;1.80;;
35847;SDS011;22332;51.954;20.118;2022-08-01T12:21:46;2.50;;;1.70;;
35847;SDS011;22332;51.954;20.118;2022-08-01T12:25:11;1.80;;;1.70;;
35847;SDS011;22332;51.954;20.118;2022-08-01T12:28:18;2.30;;;1.50;;
35847;SDS011;22332;51.954;20.118;2022-08-01T12:31:31;2.40;;;1.70;;
35847;SDS011;22332;51.954;20.118;2022-08-01T12:34:37;2.00;;;1.90;;
35847;SDS011;22332;51.954;20.118;2022-08-01T12:37:43;3.80;;;1.90;;
35847;SDS011;22332;51.954;20.118;2022-08-01T12:40:50;1.90;;;1.70;;
35847;SDS011;22332;51.954;20.118;2022-08-01T12:43:55;2.50;;;1.70;;
35847;SDS011;22332;51.954;20.118;2022-08-01T12:47:01;1.90;;;1.70;;
35847;SDS011;22332;51.954;20.118;2022-08-01T12:50:11;2.40;;;1.60;;
35847;SDS011;22332;51.954;20.118;2022-08-01T12:53:18;2.70;;;1.70;;
35847;SDS011;22332;51.954;20.118;2022-08-01T12:56:31;3.80;;;2.10;;
35847;SDS011;22332;51.954;20.118;2022-08-01T12:59:37;2.00;;;1.80;;
35847;SDS011;22332;51.954;20.118;2022-08-01T13:02:44;3.50;;;1.90;;
35847;SDS011;22332;51.954;20.118;2022-08-01T13:05:51;3.30;;;1.70;;
35847;SDS011;22332;51.954;20.118;2022-08-01T13:09:05;2.80;;;1.70;;
35847;SDS011;22332;51.954;20.118;2022-08-01T13:12:11;2.10;;;1.60;;
35847;SDS011;22332;51.954;20.118;2022-08-01T13:15:21;2.40;;;1.70;;
35847;SDS011;22332;51.954;20.118;2022-08-01T13:18:30;3.20;;;1.70;;
35847;SDS011;22332;51.954;20.118;2022-08-01T13:21:37;1.60;;;1.50;;
35847;SDS011;22332;51.954;20.118;2022-08-01T13:24:42;2.00;;;1.70;;
35847;SDS011;22332;51.954;20.118;2022-08-01T13:27:47;1.60;;;1.40;;
35847;SDS011;22332;51.954;20.118;2022-08-01T13:31:13;3.40;;;2.00;;
35847;SDS011;22332;51.954;20.118;2022-08-01T13:34:18;1.80;;;1.70;;
35847;SDS011;22332;51.954;20.118;2022-08-01T13:37:35;1.90;;;1.70;;
35847;SDS011;22332;51.954;20.118;2022-08-01T13:40:40;2.20;;;2.00;;
35847;SDS011;22332;51.954;20.118;2022-08-01T13:43:46;3.50;;;1.90;;
35847;SDS011;22332;51.954;20.118;2022-08-01T13:46:51;1.70;;;1.60;;
35847;SDS011;22332;51.954;20.118;2022-08-01T13:49:58;2.20;;;2.00;;
35847;SDS011;22332;51.954;20.118;2022-08-01T13:53:05;1.80;;;1.70;;
35847;SDS011;22332;51.954;20.118;2022-08-01T13:56:11;2.00;;;1.80;;
35847;SDS011;22332;51.954;20.118;2022-08-01T13:59:18;2.30;;;1.70;;
35847;SDS011;22332;51.954;20.118;2022-08-01T14:02:24;4.00;;;1.80;;
35847;SDS011;22332;51.954;20.118;2022-08-01T14:05:30;2.10;;;1.90;;
35847;SDS011;22332;51.954;20.118;2022-08-01T14:08:36;2.90;;;1.80;;
35847;SDS011;22332;51.954;20.118;2022-08-01T14:11:41;2.50;;;1.90;;
35847;SDS011;22332;51.954;20.118;2022-08-01T14:14:47;2.40;;;1.70;;
35847;SDS011;22332;51.954;20.118;2022-08-01T14:17:52;2.20;;;2.00;;
35847;SDS011;22332;51.954;20.118;2022-08-01T14:20:58;3.80;;;2.10;;
35847;SDS011;22332;51.954;20.118;2022-08-01T14:24:03;2.70;;;2.00;;
35847;SDS011;22332;51.954;20.118;2022-08-01T14:27:10;2.20;;;2.00;;
35847;SDS011;22332;51.954;20.118;2022-08-01T14:30:15;4.50;;;2.10;;
35847;SDS011;22332;51.954;20.118;2022-08-01T14:33:20;2.30;;;2.00;;
35847;SDS011;22332;51.954;20.118;2022-08-01T14:36:26;4.00;;;1.90;;
35847;SDS011;22332;51.954;20.118;2022-08-01T14:39:31;2.10;;;1.90;;
35847;SDS011;22332;51.954;20.118;2022-08-01T14:42:37;2.40;;;2.10;;
35847;SDS011;22332;51.954;20.118;2022-08-01T14:45:43;2.80;;;2.20;;
35847;SDS011;22332;51.954;20.118;2022-08-01T14:48:51;2.70;;;2.00;;
35847;SDS011;22332;51.954;20.118;2022-08-01T14:51:57;2.60;;;2.10;;
35847;SDS011;22332;51.954;20.118;2022-08-01T14:55:03;2.90;;;1.80;;
35847;SDS011;22332;51.954;20.118;2022-08-01T14:58:11;3.00;;;2.10;;
35847;SDS011;22332;51.954;20.118;2022-08-01T15:01:16;2.50;;;2.00;;
35847;SDS011;22332;51.954;20.118;2022-08-01T15:04:22;2.40;;;2.20;;
35847;SDS011;22332;51.954;20.118;2022-08-01T15:07:28;7.30;;;4.70;;
35847;SDS011;22332;51.954;20.118;2022-08-01T15:10:34;6.60;;;4.80;;
35847;SDS011;22332;51.954;20.118;2022-08-01T15:13:40;3.00;;;2.40;;
35847;SDS011;22332;51.954;20.118;2022-08-01T15:16:45;2.80;;;2.10;;
35847;SDS011;22332;51.954;20.118;2022-08-01T15:19:51;3.00;;;2.10;;
35847;SDS011;22332;51.954;20.118;2022-08-01T15:22:57;2.10;;;1.90;;
35847;SDS011;22332;51.954;20.118;2022-08-01T15:26:03;2.60;;;2.10;;
35847;SDS011;22332;51.954;20.118;2022-08-01T15:29:11;2.50;;;2.30;;
35847;SDS011;22332;51.954;20.118;2022-08-01T15:32:18;2.50;;;2.10;;
35847;SDS011;22332;51.954;20.118;2022-08-01T15:35:23;2.30;;;2.10;;
35847;SDS011;22332;51.954;20.118;2022-08-01T15:38:29;2.70;;;1.90;;
35847;SDS011;22332;51.954;20.118;2022-08-01T15:41:34;2.80;;;2.30;;
35847;SDS011;22332;51.954;20.118;2022-08-01T15:44:39;2.80;;;2.30;;
35847;SDS011;22332;51.954;20.118;2022-08-01T15:47:45;3.30;;;2.20;;
35847;SDS011;22332;51.954;20.118;2022-08-01T15:50:51;3.50;;;2.40;;
35847;SDS011;22332;51.954;20.118;2022-08-01T15:53:56;4.00;;;3.00;;
35847;SDS011;22332;51.954;20.118;2022-08-01T15:57:05;3.50;;;2.50;;
35847;SDS011;22332;51.954;20.118;2022-08-01T16:00:12;5.50;;;2.60;;
35847;SDS011;22332;51.954;20.118;2022-08-01T16:03:18;4.10;;;2.30;;
35847;SDS011;22332;51.954;20.118;2022-08-01T16:06:24;5.80;;;4.60;;
35847;SDS011;22332;51.954;20.118;2022-08-01T16:09:30;4.10;;;3.40;;
35847;SDS011;22332;51.954;20.118;2022-08-01T16:12:35;5.60;;;4.50;;
35847;SDS011;22332;51.954;20.118;2022-08-01T16:15:41;15.90;;;12.70;;
35847;SDS011;22332;51.954;20.118;2022-08-01T16:18:46;14.10;;;10.20;;
35847;SDS011;22332;51.954;20.118;2022-08-01T16:21:52;9.30;;;6.80;;
35847;SDS011;22332;51.954;20.118;2022-08-01T16:24:58;7.10;;;5.70;;
35847;SDS011;22332;51.954;20.118;2022-08-01T16:28:03;6.00;;;5.00;;
35847;SDS011;22332;51.954;20.118;2022-08-01T16:31:11;6.20;;;4.80;;
35847;SDS011;22332;51.954;20.118;2022-08-01T16:34:17;10.70;;;4.20;;
35847;SDS011;22332;51.954;20.118;2022-08-01T16:37:22;4.10;;;3.70;;
35847;SDS011;22332;51.954;20.118;2022-08-01T16:40:28;4.30;;;3.90;;
35847;SDS011;22332;51.954;20.118;2022-08-01T16:43:33;4.90;;;3.80;;
35847;SDS011;22332;51.954;20.118;2022-08-01T16:46:39;4.00;;;3.10;;
35847;SDS011;22332;51.954;20.118;2022-08-01T16:49:44;3.50;;;3.20;;
35847;SDS011;22332;51.954;20.118;2022-08-01T16:52:49;3.80;;;3.30;;
35847;SDS011;22332;51.954;20.118;2022-08-01T16:55:55;5.70;;;3.60;;
35847;SDS011;22332;51.954;20.118;2022-08-01T16:59:00;3.80;;;3.30;;
35847;SDS011;22332;51.954;20.118;2022-08-01T17:02:06;4.90;;;3.50;;
35847;SDS011;22332;51.954;20.118;2022-08-01T17:05:11;4.10;;;3.30;;
35847;SDS011;22332;51.954;20.118;2022-08-01T17:08:17;3.40;;;2.70;;
35847;SDS011;22332;51.954;20.118;2022-08-01T17:11:22;5.00;;;3.10;;
35847;SDS011;22332;51.954;20.118;2022-08-01T17:14:28;6.90;;;5.10;;
35847;SDS011;22332;51.954;20.118;2022-08-01T17:17:35;3.80;;;3.30;;
35847;SDS011;22332;51.954;20.118;2022-08-01T17:20:40;4.40;;;3.40;;
35847;SDS011;22332;51.954;20.118;2022-08-01T17:23:46;3.80;;;3.20;;
35847;SDS011;22332;51.954;20.118;2022-08-01T17:26:52;6.10;;;4.70;;
35847;SDS011;22332;51.954;20.118;2022-08-01T17:30:05;4.10;;;3.70;;
35847;SDS011;22332;51.954;20.118;2022-08-01T17:33:11;4.20;;;3.80;;
35847;SDS011;22332;51.954;20.118;2022-08-01T17:36:17;3.50;;;3.20;;
35847;SDS011;22332;51.954;20.118;2022-08-01T17:39:23;3.50;;;3.20;;
35847;SDS011;22332;51.954;20.118;2022-08-01T17:42:28;3.60;;;3.30;;
35847;SDS011;22332;51.954;20.118;2022-08-01T17:45:34;3.30;;;3.00;;
35847;SDS011;22332;51.954;20.118;2022-08-01T17:48:39;3.70;;;2.90;;
35847;SDS011;22332;51.954;20.118;2022-08-01T17:51:46;4.00;;;2.90;;
35847;SDS011;22332;51.954;20.118;2022-08-01T17:54:51;5.30;;;2.80;;
35847;SDS011;22332;51.954;20.118;2022-08-01T17:57:56;3.80;;;3.00;;
35847;SDS011;22332;51.954;20.118;2022-08-01T18:01:04;4.30;;;3.40;;
35847;SDS011;22332;51.954;20.118;2022-08-01T18:04:09;3.30;;;3.00;;
35847;SDS011;22332;51.954;20.118;2022-08-01T18:07:15;3.10;;;2.80;;
35847;SDS011;22332;51.954;20.118;2022-08-01T18:10:20;2.90;;;2.60;;
35847;SDS011;22332;51.954;20.118;2022-08-01T18:13:25;2.50;;;2.30;;
35847;SDS011;22332;51.954;20.118;2022-08-01T18:16:31;2.80;;;2.50;;
35847;SDS011;22332;51.954;20.118;2022-08-01T18:19:36;4.30;;;2.70;;
35847;SDS011;22332;51.954;20.118;2022-08-01T18:22:42;5.00;;;2.70;;
35847;SDS011;22332;51.954;20.118;2022-08-01T18:25:48;3.80;;;2.80;;
35847;SDS011;22332;51.954;20.118;2022-08-01T18:28:53;4.00;;;2.90;;
35847;SDS011;22332;51.954;20.118;2022-08-01T18:31:58;3.50;;;3.20;;
35847;SDS011;22332;51.954;20.118;2022-08-01T18:35:06;2.90;;;2.60;;
35847;SDS011;22332;51.954;20.118;2022-08-01T18:38:12;2.90;;;2.50;;
35847;SDS011;22332;51.954;20.118;2022-08-01T18:41:17;4.50;;;2.50;;